Time;durP1;ratioP1;P1;durP2;ratioP2;P2;SDS_P1;SDS_P2;PMS_P1;PMS_P2;Temp;Humidity;BMP_temperature;BMP_pressure;BME280_temperature;BME280_humidity;BME280_pressure;Samples;Min_cycle;Max_cycle;Signal;HPM_P1;HPM_P2
2023/06/08 00:01:29;;;;;;;30.13;12.10;;;;;;;13.13;100.00;163998.72;5012721;28;20026;-64
2023/06/08 00:03:55;;;;;;;27.90;11.25;;;;;;;13.12;100.00;163996.00;5010989;28;20046;-63
2023/06/08 00:06:25;;;;;;;15.75;10.13;;;;;;;13.09;100.00;163986.53;5012239;28;20030;-63
2023/06/08 00:08:51;;;;;;;17.60;9.45;;;;;;;13.09;100.00;163986.53;5011237;28;20064;-63
2023/06/08 00:11:16;;;;;;;21.98;11.00;;;;;;;13.08;100.00;163983.81;5012507;28;20026;-64
2023/06/08 00:13:41;;;;;;;17.13;10.35;;;;;;;13.05;100.00;163975.75;5010506;28;20052;-64
2023/06/08 00:16:07;;;;;;;14.23;10.30;;;;;;;13.05;100.00;163975.75;5012496;28;20534;-64
2023/06/08 00:18:36;;;;;;;22.48;10.10;;;;;;;13.03;100.00;163971.66;5010976;28;20038;-65
2023/06/08 00:21:01;;;;;;;31.02;10.57;;;;;;;13.00;100.00;163964.91;5012332;28;20096;-63
2023/06/08 00:23:28;;;;;;;22.20;12.05;;;;;;;12.89;100.00;163933.81;5010797;28;20029;-63
2023/06/08 00:25:53;;;;;;;15.77;9.80;;;;;;;12.90;100.00;163937.91;5011686;28;20040;-63
2023/06/08 00:28:20;;;;;;;19.77;10.38;;;;;;;12.81;100.00;163914.88;5010823;28;20477;-63
2023/06/08 00:30:46;;;;;;;16.15;9.80;;;;;;;12.77;100.00;163902.75;5012191;28;20026;-63
2023/06/08 00:33:11;;;;;;;25.90;12.05;;;;;;;12.74;100.00;163894.63;5010938;28;20508;-62
2023/06/08 00:35:36;;;;;;;21.45;9.25;;;;;;;12.68;100.00;163879.75;5011904;28;20029;-62
2023/06/08 00:38:02;;;;;;;24.25;11.00;;;;;;;12.63;100.00;163867.59;5011365;28;20481;-64
2023/06/08 00:40:27;;;;;;;24.15;10.00;;;;;;;12.57;100.00;163851.38;5010800;28;20050;-64
2023/06/08 00:42:52;;;;;;;23.83;11.32;;;;;;;12.60;100.00;163859.50;5012003;28;20033;-64
2023/06/08 00:45:18;;;;;;;20.15;11.63;;;;;;;12.51;100.00;163835.16;5010315;28;20409;-64
2023/06/08 00:47:43;;;;;;;25.55;10.75;;;;;;;12.46;100.00;163821.66;5011589;28;20021;-64
2023/06/08 00:50:09;;;;;;;17.40;10.55;;;;;;;12.46;100.00;163821.66;5010268;28;20050;-65
2023/06/08 00:52:39;;;;;;;15.77;9.82;;;;;;;12.40;100.00;163805.47;5011516;28;20105;-65
2023/06/08 00:55:06;;;;;;;18.85;10.35;;;;;;;12.45;100.00;163818.97;5010379;28;20048;-65
2023/06/08 00:57:33;;;;;;;23.02;9.85;;;;;;;12.42;100.00;163812.22;5011730;28;20421;-65
2023/06/08 01:00:04;;;;;;;32.10;11.50;;;;;;;12.36;100.00;163796.00;5009687;28;20038;-65
2023/06/08 01:02:31;;;;;;;29.83;11.48;;;;;;;12.42;100.00;163810.84;5011879;28;20133;-65
2023/06/08 01:04:56;;;;;;;23.08;11.02;;;;;;;12.37;100.00;163798.66;5009444;28;20543;-65
2023/06/08 01:07:30;;;;;;;21.85;10.82;;;;;;;12.32;100.00;163786.50;5011256;28;20034;-65
2023/06/08 01:10:05;;;;;;;23.48;11.85;;;;;;;12.30;100.00;163781.13;5009890;28;20202;-65
2023/06/08 01:12:46;;;;;;;18.40;11.43;;;;;;;12.35;100.00;163794.63;5011711;28;20029;-65
2023/06/08 01:15:23;;;;;;;25.95;11.82;;;;;;;12.30;100.00;163781.13;5009959;28;20046;-65
2023/06/08 01:17:57;;;;;;;27.83;11.67;;;;;;;12.30;100.00;163781.13;5011421;28;20033;-65
2023/06/08 01:20:34;;;;;;;21.33;12.85;;;;;;;12.27;100.00;163773.00;5009575;28;20088;-65
2023/06/08 01:23:34;;;;;;;20.92;12.07;;;;;;;12.27;100.00;163773.00;5011332;28;20029;-66
2023/06/08 01:26:00;;;;;;;20.58;13.23;;;;;;;12.27;100.00;163771.66;5025298;28;20080;-64
2023/06/08 01:28:28;;;;;;;21.38;12.00;;;;;;;12.25;100.00;163766.25;5029528;28;20022;-64
2023/06/08 01:30:54;;;;;;;22.58;14.00;;;;;;;12.26;100.00;163770.28;5030856;28;20471;-63
2023/06/08 01:33:21;;;;;;;23.05;13.48;;;;;;;12.26;100.00;163770.28;5029671;28;20018;-65
2023/06/08 01:36:14;;;;;;;27.23;14.05;;;;;;;12.22;100.00;163759.50;5030232;28;20025;-64
2023/06/08 01:39:06;;;;;;;20.77;12.05;;;;;;;12.19;100.00;163751.38;5029389;28;20041;-64
2023/06/08 01:41:35;;;;;;;26.13;14.05;;;;;;;12.10;100.00;163727.09;5016869;28;20018;-64
2023/06/08 01:44:01;;;;;;;;;;;;;;;12.14;100.00;163737.88;5029438;28;20135;-64
2023/06/08 01:46:29;;;;;;;31.42;17.15;;;;;;;12.14;100.00;163737.88;5030828;28;19915;-64
2023/06/08 01:48:58;;;;;;;36.10;14.27;;;;;;;12.15;100.00;163740.59;5029092;28;20411;-65
2023/06/08 01:51:24;;;;;;;;;;;;;;;12.14;100.00;163737.88;5031006;28;20403;-65
2023/06/08 01:53:58;;;;;;;38.83;15.38;;;;;;;12.11;100.00;163729.75;5029349;28;19942;-65
2023/06/08 01:56:34;;;;;;;27.20;15.35;;;;;;;12.12;100.00;163732.47;5030522;28;20488;-65
2023/06/08 01:58:59;;;;;;;22.48;12.32;;;;;;;12.10;100.00;163727.09;5028799;28;20042;-64
2023/06/08 02:01:25;;;;;;;24.50;14.93;;;;;;;12.02;100.00;163708.19;5030389;28;20365;-65
2023/06/08 02:03:50;;;;;;;34.33;13.43;;;;;;;11.99;100.00;163700.06;5028963;28;20070;-67
2023/06/08 02:06:16;;;;;;;19.42;13.57;;;;;;;11.93;100.00;163683.81;5030373;28;20030;-66
2023/06/08 02:08:41;;;;;;;28.90;14.23;;;;;;;11.90;100.00;163677.06;5028648;28;20045;-66
2023/06/08 02:11:07;;;;;;;23.80;12.57;;;;;;;11.84;100.00;163659.47;5030927;28;20029;-65
2023/06/08 02:13:35;;;;;;;31.67;17.05;;;;;;;11.81;100.00;163651.34;5028876;28;20136;-65
2023/06/08 02:16:01;;;;;;;26.38;16.80;;;;;;;11.78;100.00;163643.28;5030229;28;20033;-66
2023/06/08 02:18:26;;;;;;;35.35;17.67;;;;;;;11.81;100.00;163652.72;5029028;28;20029;-66
2023/06/08 02:20:52;;;;;;;26.27;14.32;;;;;;;11.81;100.00;163651.34;5029947;28;20087;-66
2023/06/08 02:23:17;;;;;;;24.20;15.48;;;;;;;11.85;100.00;163663.50;5028945;28;20024;-66
2023/06/08 02:25:43;;;;;;;23.80;15.43;;;;;;;11.88;100.00;163670.25;5030034;28;20017;-66
2023/06/08 02:28:08;;;;;;;26.20;15.43;;;;;;;11.86;100.00;163664.91;5030246;28;20037;-65
2023/06/08 02:30:33;;;;;;;28.13;15.88;;;;;;;11.85;100.00;163662.19;5028833;28;20514;-65
2023/06/08 02:32:59;;;;;;;25.13;14.63;;;;;;;11.82;100.00;163655.44;5030331;28;20025;-64
2023/06/08 02:35:24;;;;;;;27.38;13.68;;;;;;;11.70;100.00;163624.38;5028689;28;20041;-65
2023/06/08 02:37:50;;;;;;;23.52;15.32;;;;;;;11.74;100.00;163635.16;5030326;28;20037;-63
2023/06/08 02:40:15;;;;;;;24.55;15.15;;;;;;;11.74;100.00;163635.16;5028622;28;20038;-63
2023/06/08 02:42:41;;;;;;;28.80;16.80;;;;;;;11.73;100.00;163632.44;5029664;28;20392;-64
2023/06/08 02:45:06;;;;;;;21.55;13.32;;;;;;;11.72;100.00;163629.78;5013076;28;20044;-66
2023/06/08 02:47:32;;;;;;;23.73;15.45;;;;;;;11.70;100.00;163624.38;5011082;28;20030;-64
2023/06/08 02:49:57;;;;;;;35.42;17.63;;;;;;;11.69;100.00;163621.66;5011988;28;20040;-65
2023/06/08 02:52:22;;;;;;;25.92;15.60;;;;;;;11.63;100.00;163605.47;5014210;28;20022;-64
2023/06/08 02:54:48;;;;;;;21.65;14.45;;;;;;;11.62;100.00;163602.75;5012585;28;20528;-65
2023/06/08 02:57:13;;;;;;;28.38;16.63;;;;;;;11.54;100.00;163581.13;5013458;28;20405;-65
2023/06/08 02:59:40;;;;;;;33.40;16.73;;;;;;;11.54;100.00;163581.13;5012029;28;20041;-64
2023/06/08 03:02:05;;;;;;;21.30;13.70;;;;;;;11.51;100.00;163573.00;5013744;28;20085;-64
2023/06/08 03:04:31;;;;;;;34.70;16.90;;;;;;;11.53;100.00;163578.41;5012275;28;20045;-64
2023/06/08 03:06:56;;;;;;;24.38;15.90;;;;;;;11.51;100.00;163573.00;5013478;28;20476;-64
2023/06/08 03:09:29;;;;;;;28.13;15.95;;;;;;;11.47;100.00;163562.22;5012283;28;20049;-65
2023/06/08 03:11:55;;;;;;;36.40;17.27;;;;;;;11.43;100.00;163554.09;5013377;28;20057;-65
2023/06/08 03:14:28;;;;;;;30.88;16.20;;;;;;;11.37;100.00;163537.91;5012297;28;20045;-64
2023/06/08 03:16:57;;;;;;;29.95;16.27;;;;;;;11.38;100.00;163540.63;5013821;28;20107;-65
2023/06/08 03:19:22;;;;;;;28.45;15.50;;;;;;;11.39;100.00;163542.00;5012187;28;20042;-65
2023/06/08 03:21:49;;;;;;;24.50;14.80;;;;;;;11.36;100.00;163533.88;5013625;28;20613;-65
2023/06/08 03:24:15;;;;;;;32.47;16.67;;;;;;;11.28;100.00;163513.63;5012122;28;20073;-65
2023/06/08 03:26:40;;;;;;;32.40;15.13;;;;;;;11.29;100.00;163516.28;5012956;28;20025;-64
2023/06/08 03:29:05;;;;;;;35.55;15.98;;;;;;;11.28;100.00;163513.63;5012047;28;20053;-64
2023/06/08 03:31:36;;;;;;;25.58;16.35;;;;;;;11.23;100.00;163501.47;5013250;28;20476;-65
2023/06/08 03:34:02;;;;;;;27.33;16.55;;;;;;;11.22;100.00;163497.38;5011786;28;20511;-64
2023/06/08 03:36:33;;;;;;;31.25;16.73;;;;;;;11.22;100.00;163497.38;5013057;28;20093;-64
2023/06/08 03:39:00;;;;;;;26.48;16.33;;;;;;;11.11;100.00;163470.41;5011718;28;20041;-64
2023/06/08 03:41:26;;;;;;;30.10;19.08;;;;;;;11.19;100.00;163490.63;5013046;28;20040;-64
2023/06/08 03:43:52;;;;;;;29.25;18.60;;;;;;;11.16;100.00;163482.56;5011732;28;20049;-65
2023/06/08 03:46:17;;;;;;;22.40;15.95;;;;;;;11.15;100.00;163479.88;5013289;28;20423;-65
2023/06/08 03:48:42;;;;;;;22.30;15.02;;;;;;;11.11;100.00;163470.41;5011217;28;20396;-65
2023/06/08 03:51:08;;;;;;;36.30;18.67;;;;;;;11.10;100.00;163467.72;5012873;28;20032;-64
2023/06/08 03:53:33;;;;;;;29.13;19.88;;;;;;;11.07;100.00;163459.59;5011506;28;20038;-65
2023/06/08 03:55:58;;;;;;;28.17;18.67;;;;;;;11.04;100.00;163451.50;5012374;28;20030;-65
2023/06/08 03:58:24;;;;;;;28.25;18.55;;;;;;;11.01;100.00;163443.38;5011470;28;20106;-64
2023/06/08 04:00:49;;;;;;;31.27;20.95;;;;;;;11.00;100.00;163439.34;5011976;28;20037;-65
2023/06/08 04:03:14;;;;;;;35.03;20.02;;;;;;;10.99;100.00;163437.97;5010879;28;20050;-64
2023/06/08 04:05:40;;;;;;;28.90;17.27;;;;;;;10.91;100.00;163416.38;5011920;28;20025;-64
2023/06/08 04:08:05;;;;;;;28.00;19.60;;;;;;;10.92;100.00;163420.47;5012891;28;20030;-65
2023/06/08 04:10:31;;;;;;;31.58;21.85;;;;;;;10.92;100.00;163419.06;5010943;28;20119;-64
2023/06/08 04:12:56;;;;;;;38.50;24.13;;;;;;;10.92;100.00;163419.06;5012190;28;20029;-66
2023/06/08 04:15:21;;;;;;;33.60;21.05;;;;;;;10.94;100.00;163425.88;5010049;28;20034;-65
2023/06/08 04:17:49;;;;;;;43.53;23.90;;;;;;;11.00;100.00;163440.69;5011876;28;20026;-66
2023/06/08 04:20:15;;;;;;;43.13;21.98;;;;;;;10.96;100.00;163429.91;5010951;28;20077;-68
2023/06/08 04:22:40;;;;;;;38.50;21.08;;;;;;;10.98;100.00;163435.31;5011480;28;20021;-64
2023/06/08 04:25:06;;;;;;;44.60;21.27;;;;;;;10.94;100.00;163424.50;5010172;28;20049;-63
2023/06/08 04:27:34;;;;;;;38.25;22.23;;;;;;;10.93;100.00;163423.16;5011647;28;20142;-64
2023/06/08 04:29:59;;;;;;;29.40;21.80;;;;;;;10.90;100.00;163413.72;5010465;28;20493;-63
2023/06/08 04:32:25;;;;;;;51.97;21.40;;;;;;;10.88;100.00;163408.28;5012225;28;20041;-64
2023/06/08 04:34:51;;;;;;;44.25;23.90;;;;;;;10.83;100.00;163394.81;5010435;28;20034;-64
2023/06/08 04:37:16;;;;;;;29.23;19.83;;;;;;;10.84;100.00;163398.84;5012224;28;20092;-64
2023/06/08 04:39:41;;;;;;;33.50;19.95;;;;;;;10.81;100.00;163389.41;5009893;28;20382;-63
2023/06/08 04:42:08;;;;;;;34.55;22.27;;;;;;;10.88;100.00;163408.28;5010950;28;20029;-64
2023/06/08 04:44:34;;;;;;;31.38;19.40;;;;;;;10.97;100.00;163431.22;5010775;28;20416;-64
2023/06/08 04:47:00;;;;;;;28.83;20.85;;;;;;;11.03;100.00;163448.81;5011735;28;20448;-64
2023/06/08 04:49:31;;;;;;;31.23;19.50;;;;;;;11.07;100.00;163459.59;5010285;28;20042;-63
2023/06/08 04:51:59;;;;;;;34.45;22.73;;;;;;;11.05;100.00;163454.22;5012052;28;20022;-63
2023/06/08 04:54:25;;;;;;;;;;;;;;;11.01;100.00;163443.38;5011114;28;20042;-64
2023/06/08 04:56:53;;;;;;;28.23;17.70;;;;;;;11.03;100.00;163448.81;5011210;28;19909;-64
2023/06/08 04:59:19;;;;;;;32.47;22.73;;;;;;;11.04;100.00;163450.13;5010596;28;20037;-64
2023/06/08 05:01:44;;;;;;;28.98;16.58;;;;;;;11.05;100.00;163454.22;5011417;28;20116;-65
2023/06/08 05:04:10;;;;;;;36.60;21.35;;;;;;;11.10;100.00;163466.31;5008286;28;20056;-63
2023/06/08 05:06:35;;;;;;;25.00;17.30;;;;;;;11.19;100.00;163489.31;5010890;28;20389;-63
2023/06/08 05:09:00;;;;;;;26.20;17.45;;;;;;;11.26;100.00;163508.22;5009844;28;20189;-65
2023/06/08 05:11:26;;;;;;;22.90;15.30;;;;;;;11.23;100.00;163500.09;5010766;28;20046;-65
2023/06/08 05:13:51;;;;;;;26.42;18.73;;;;;;;11.10;100.00;163467.72;5009955;28;20042;-64
2023/06/08 05:16:17;;;;;;;24.02;16.50;;;;;;;11.16;100.00;163481.19;5011104;28;20037;-64
2023/06/08 05:18:42;;;;;;;34.03;16.70;;;;;;;11.12;100.00;163471.75;5008661;28;20037;-65
2023/06/08 05:21:07;;;;;;;24.45;18.52;;;;;;;11.01;100.00;163442.06;5011627;28;20053;-65
2023/06/08 05:23:33;;;;;;;31.13;18.13;;;;;;;11.01;100.00;163442.06;5009246;28;20734;-65
2023/06/08 05:25:58;;;;;;;24.88;17.40;;;;;;;11.01;100.00;163443.38;5010735;28;20029;-64
2023/06/08 05:28:23;;;;;;;33.08;17.92;;;;;;;11.05;100.00;163454.22;5008999;28;20034;-64
2023/06/08 05:30:49;;;;;;;23.77;16.88;;;;;;;11.04;100.00;163451.50;5009933;28;20080;-64
2023/06/08 05:33:14;;;;;;;28.83;18.25;;;;;;;11.23;100.00;163500.09;5009998;28;20036;-64
2023/06/08 05:35:40;;;;;;;27.02;14.30;;;;;;;11.33;100.00;163527.13;5011111;28;20038;-64
2023/06/08 05:38:05;;;;;;;28.55;16.25;;;;;;;11.39;100.00;163543.31;5011123;28;20018;-64
2023/06/08 05:40:30;;;;;;;21.15;17.98;;;;;;;11.37;100.00;163537.91;5008654;28;20045;-65
2023/06/08 05:42:56;;;;;;;23.00;15.93;;;;;;;11.43;100.00;163554.09;5010746;28;20022;-64
2023/06/08 05:45:22;;;;;;;27.98;15.82;;;;;;;11.39;100.00;163542.00;5009713;28;20046;-65
2023/06/08 05:47:47;;;;;;;30.63;16.85;;;;;;;11.39;100.00;163543.31;5010501;28;20049;-64
2023/06/08 05:50:12;;;;;;;25.65;16.67;;;;;;;11.40;100.00;163546.03;5009825;28;20088;-64
2023/06/08 05:52:38;;;;;;;25.27;19.65;;;;;;;11.35;100.00;163532.53;5011233;28;20037;-64
2023/06/08 05:55:04;;;;;;;28.00;16.88;;;;;;;11.39;100.00;163543.31;5009377;28;20423;-63
2023/06/08 05:57:30;;;;;;;26.80;15.13;;;;;;;11.45;100.00;163558.19;5010984;28;20093;-64
2023/06/08 05:59:55;;;;;;;23.58;16.23;;;;;;;11.49;100.00;163568.97;5009399;28;20531;-65
2023/06/08 06:02:21;;;;;;;21.55;15.90;;;;;;;11.47;100.00;163563.56;5010539;28;20054;-65
2023/06/08 06:04:46;;;;;;;27.45;17.85;;;;;;;11.52;100.00;163575.72;5009475;28;20042;-64
2023/06/08 06:07:11;;;;;;;21.90;14.55;;;;;;;11.55;100.00;163583.84;5010804;28;20034;-65
2023/06/08 06:09:37;;;;;;;31.95;17.20;;;;;;;11.48;100.00;163564.94;5008940;28;20042;-63
2023/06/08 06:12:03;;;;;;;25.05;17.58;;;;;;;11.53;100.00;163579.81;5010979;28;20021;-64
2023/06/08 06:14:36;;;;;;;22.70;16.73;;;;;;;11.56;100.00;163586.53;5004812;28;20053;-64
2023/06/08 06:17:02;;;;;;;27.15;15.23;;;;;;;11.54;100.00;163581.13;5010350;28;20514;-65
2023/06/08 06:19:29;;;;;;;29.02;15.98;;;;;;;11.56;100.00;163586.53;5009230;28;20050;-64
2023/06/08 06:21:54;;;;;;;17.50;15.48;;;;;;;11.55;100.00;163585.16;5010816;28;20054;-64
2023/06/08 06:24:19;;;;;;;29.40;16.02;;;;;;;11.59;100.00;163594.63;5012149;28;20571;-65
2023/06/08 06:26:45;;;;;;;18.40;16.00;;;;;;;11.65;100.00;163610.88;5014590;28;20113;-66
2023/06/08 06:29:10;;;;;;;23.05;16.35;;;;;;;11.66;100.00;163613.53;5013247;28;20046;-66
2023/06/08 06:31:35;;;;;;;29.02;17.35;;;;;;;11.76;100.00;163639.25;5014247;28;20018;-64
2023/06/08 06:34:01;;;;;;;28.23;16.50;;;;;;;11.78;100.00;163643.28;5013209;28;20042;-64
2023/06/08 06:36:26;;;;;;;28.10;17.10;;;;;;;11.85;100.00;163662.19;5014383;28;20029;-64
2023/06/08 06:38:52;;;;;;;26.00;16.83;;;;;;;11.91;100.00;163678.38;5012305;28;20046;-64
2023/06/08 06:41:17;;;;;;;27.58;16.75;;;;;;;12.01;100.00;163705.47;5014269;28;20350;-64
2023/06/08 06:43:42;;;;;;;18.55;13.68;;;;;;;12.04;100.00;163713.56;5012823;28;20042;-64
2023/06/08 06:46:08;;;;;;;20.05;14.88;;;;;;;12.04;100.00;163713.56;5013866;28;20037;-65
2023/06/08 06:48:33;;;;;;;23.77;14.77;;;;;;;12.17;100.00;163746.00;5012638;28;20050;-64
2023/06/08 06:50:59;;;;;;;22.13;13.95;;;;;;;12.31;100.00;163783.84;5014128;28;20026;-64
2023/06/08 06:53:24;;;;;;;19.15;12.90;;;;;;;12.45;100.00;163818.97;5012505;28;20040;-64
2023/06/08 06:55:49;;;;;;;18.33;13.45;;;;;;;12.50;100.00;163832.47;5013827;28;20025;-64
2023/06/08 06:58:15;;;;;;;20.70;12.95;;;;;;;12.62;100.00;163863.53;5012806;28;20018;-64
2023/06/08 07:00:40;;;;;;;23.70;13.68;;;;;;;12.66;100.00;163875.72;5013685;28;20029;-64
2023/06/08 07:03:07;;;;;;;18.02;11.93;;;;;;;12.67;100.00;163878.44;5013790;28;20125;-64
2023/06/08 07:05:33;;;;;;;19.73;14.27;;;;;;;12.66;100.00;163875.72;5032304;28;20149;-64
2023/06/08 07:07:59;;;;;;;21.70;15.00;;;;;;;12.66;100.00;163875.72;5033255;28;20395;-64
2023/06/08 07:10:24;;;;;;;23.55;13.18;;;;;;;12.68;100.00;163881.13;5032016;28;20041;-64
2023/06/08 07:12:49;;;;;;;18.17;13.13;;;;;;;12.83;100.00;163918.97;5029950;28;20436;-64
2023/06/08 07:15:16;;;;;;;18.13;13.00;;;;;;;13.00;100.00;163964.91;5031690;28;20052;-64
2023/06/08 07:17:43;;;;;;;21.65;13.15;;;;;;;13.19;100.00;164013.59;5032399;28;20481;-65
2023/06/08 07:20:10;;;;;;;27.60;13.30;;;;;;;13.13;100.00;163998.72;5031863;28;20124;-64
2023/06/08 07:22:35;;;;;;;24.23;15.35;;;;;;;13.06;100.00;163978.47;5033360;28;20026;-64
2023/06/08 07:25:02;;;;;;;26.15;13.70;;;;;;;12.97;100.00;163956.81;5031042;28;20523;-63
2023/06/08 07:27:27;;;;;;;24.08;16.52;;;;;;;13.06;100.00;163978.47;5033386;28;20072;-64
2023/06/08 07:29:52;;;;;;;30.05;12.77;;;;;;;13.05;100.00;163975.75;5031594;28;20504;-64
2023/06/08 07:32:18;;;;;;;18.80;15.30;;;;;;;13.04;100.00;163973.03;5033010;28;20561;-64
2023/06/08 07:34:43;;;;;;;19.98;13.23;;;;;;;13.00;100.00;163963.56;5031319;28;20056;-64
2023/06/08 07:37:08;;;;;;;22.05;13.65;;;;;;;13.08;100.00;163983.81;5032863;28;20025;-64
2023/06/08 07:39:34;;;;;;;20.67;12.80;;;;;;;13.12;100.00;163994.66;5031328;28;20052;-64
2023/06/08 07:41:59;;;;;;;15.68;12.35;;;;;;;13.24;100.00;164027.09;5032971;28;20029;-64
2023/06/08 07:44:24;;;;;;;21.65;13.85;;;;;;;13.30;100.00;164043.31;5031374;28;20393;-64
2023/06/08 07:46:50;;;;;;;19.02;12.60;;;;;;;13.37;100.00;164059.53;5032318;28;20028;-65
2023/06/08 07:49:15;;;;;;;27.77;13.65;;;;;;;13.46;100.00;164083.94;5031033;28;20379;-64
2023/06/08 07:51:40;;;;;;;22.77;13.93;;;;;;;13.28;100.00;164037.94;5032246;28;20032;-65
2023/06/08 07:54:06;;;;;;;23.98;13.43;;;;;;;13.45;100.00;164081.22;5031138;28;20061;-64
2023/06/08 07:56:31;;;;;;;17.63;12.73;;;;;;;13.41;100.00;164070.44;5032952;28;20025;-64
2023/06/08 07:58:56;;;;;;;28.33;13.07;;;;;;;13.56;100.00;164111.00;5030431;28;20587;-63
2023/06/08 08:01:22;;;;;;;26.98;14.68;;;;;;;13.70;100.00;164146.16;5032390;28;20049;-63
2023/06/08 08:03:47;;;;;;;24.65;13.25;;;;;;;13.70;100.00;164146.16;5030653;28;20042;-64
2023/06/08 08:06:13;;;;;;;18.80;10.95;;;;;;;14.14;100.00;164262.47;5032546;28;20130;-64
2023/06/08 08:08:38;;;;;;;24.67;13.55;;;;;;;14.38;100.00;164326.03;5029145;28;20431;-64
2023/06/08 08:11:03;;;;;;;34.53;12.25;;;;;;;14.50;100.00;164357.16;5032485;28;20025;-65
2023/06/08 08:13:29;;;;;;;15.05;11.13;;;;;;;14.94;100.00;164472.25;5030871;28;20044;-64
2023/06/08 08:15:54;;;;;;;20.90;10.65;;;;;;;14.96;100.00;164477.69;5032138;28;20025;-64
2023/06/08 08:18:20;;;;;;;18.05;10.63;;;;;;;15.26;100.00;164556.19;5030932;28;20508;-64
2023/06/08 08:20:46;;;;;;;16.08;11.32;;;;;;;-146.58;100.00;69501.63;5032080;28;20472;-64
2023/06/08 08:23:12;;;;;;;16.23;9.90;;;;;;;15.26;100.00;164556.19;5030494;28;20030;-64
2023/06/08 08:25:37;;;;;;;17.30;12.50;;;;;;;15.68;100.00;164665.78;5031866;28;20029;-65
2023/06/08 08:28:02;;;;;;;15.20;10.93;;;;;;;15.73;100.00;164679.38;5032247;28;20028;-64
2023/06/08 08:30:28;;;;;;;23.05;12.63;;;;;;;15.75;100.00;164684.75;5030345;28;20157;-64
2023/06/08 08:32:53;;;;;;;17.95;11.52;;;;;;;15.60;100.00;164644.16;5032023;28;20052;-65
2023/06/08 08:35:19;;;;;;;17.73;9.25;;;;;;;15.70;100.00;164671.22;5030467;28;20040;-64
2023/06/08 08:37:45;;;;;;;18.05;10.20;;;;;;;15.79;100.00;164695.59;5031332;28;20377;-65
2023/06/08 08:40:11;;;;;;;20.92;11.73;;;;;;;15.83;100.00;164706.47;5030437;28;20041;-64
2023/06/08 08:42:45;;;;;;;13.77;10.75;;;;;;;16.03;100.00;164757.94;5031429;28;20061;-64
2023/06/08 08:45:15;;;;;;;20.75;12.00;;;;;;;16.39;100.00;164852.75;5029758;28;20033;-64
2023/06/08 08:47:41;;;;;;;15.00;11.15;;;;;;;16.61;100.00;164910.97;5031210;28;20618;-64
2023/06/08 08:50:15;;;;;;;21.65;12.10;;;;;;;16.62;100.00;164912.34;5030410;28;20069;-65
2023/06/08 08:52:44;;;;;;;14.80;9.82;;;;;;;17.04;100.00;165022.16;5031374;28;20026;-65
2023/06/08 08:55:10;;;;;;;20.75;11.20;;;;;;;17.62;100.00;165173.91;5030104;28;20407;-64
2023/06/08 08:57:36;;;;;;;14.75;9.50;;;;;;;18.04;100.00;165286.50;5031283;28;20492;-64
2023/06/08 09:00:06;;;;;;;11.93;9.52;;;;;;;-146.58;100.00;69501.63;5029701;28;20033;-65
2023/06/08 09:02:35;;;;;;;15.50;10.63;;;;;;;18.04;100.00;165286.50;5031345;28;20046;-64
2023/06/08 09:05:03;;;;;;;14.52;8.55;;;;;;;18.53;100.00;165413.91;5029782;28;20037;-65
2023/06/08 09:07:29;;;;;;;20.77;10.40;;;;;;;18.22;100.00;165332.56;5031254;28;20044;-65
2023/06/08 09:10:21;;;;;;;17.48;11.65;;;;;;;18.34;100.00;165365.13;5029693;28;20037;-65
2023/06/08 09:12:48;;;;;;;22.52;10.65;;;;;;;18.75;100.00;165470.88;5031448;28;20025;-64
2023/06/08 09:15:23;;;;;;;16.20;10.03;;;;;;;18.66;100.00;165447.84;5029497;28;20104;-65
2023/06/08 09:17:51;;;;;;;16.23;11.30;;;;;;;19.17;100.00;165583.50;5030817;28;20029;-67
2023/06/08 09:20:27;;;;;;;16.80;8.77;;;;;;;19.42;100.00;165647.25;5029768;28;20041;-67
2023/06/08 09:22:53;;;;;;;23.63;10.32;;;;;;;19.18;100.00;165586.22;5030646;28;20101;-67
2023/06/08 09:25:32;;;;;;;16.10;8.75;;;;;;;19.57;100.00;165687.97;5029760;28;20061;-66
2023/06/08 09:28:14;;;;;;;16.00;6.65;;;;;;;19.64;100.00;165706.97;5030892;28;20031;-66
2023/06/08 09:30:40;;;;;;;15.93;8.73;;;;;;;19.42;100.00;165647.25;5029134;28;20098;-65
2023/06/08 09:33:19;;;;;;;15.73;8.52;;;;;;;19.33;100.00;165624.22;5030923;28;20025;-66
2023/06/08 09:35:44;;;;;;;12.63;9.07;;;;;;;19.65;100.00;165708.34;5029532;28;20045;-66
2023/06/08 09:38:18;;;;;;;15.43;9.02;;;;;;;19.57;100.00;165687.97;5029132;28;20032;-65
2023/06/08 09:40:46;;;;;;;14.30;7.82;;;;;;;19.74;100.00;165731.41;5030000;28;20116;-66
2023/06/08 09:43:11;;;;;;;12.02;7.25;;;;;;;19.80;100.00;165749.06;5029513;28;20033;-66
2023/06/08 09:45:44;;;;;;;20.98;8.93;;;;;;;19.38;100.00;165636.44;5030090;28;20029;-66
2023/06/08 09:48:10;;;;;;;15.52;9.65;;;;;;;19.29;100.00;165614.72;5029499;28;20110;-65
2023/06/08 09:50:36;;;;;;;13.40;8.85;;;;;;;19.31;100.00;165620.16;5030645;28;20112;-66
2023/06/08 09:53:03;;;;;;;15.10;10.35;;;;;;;19.37;100.00;165633.72;5030352;28;20104;-66
2023/06/08 09:55:29;;;;;;;18.60;9.37;;;;;;;19.47;100.00;165660.88;5029368;28;20095;-66
2023/06/08 09:57:56;;;;;;;12.77;7.90;;;;;;;19.42;100.00;165648.66;5031357;28;20017;-66
2023/06/08 10:00:24;;;;;;;16.37;8.23;;;;;;;19.80;100.00;165749.06;5032853;28;20041;-66
2023/06/08 10:03:28;;;;;;;15.63;8.77;;;;;;;20.21;100.00;165856.31;5034540;28;20459;-65
2023/06/08 10:05:55;;;;;;;12.68;7.63;;;;;;;20.70;100.00;165983.91;5030150;28;20230;-65
2023/06/08 10:08:26;;;;;;;12.48;6.85;;;;;;;20.67;100.00;165975.75;5032931;28;20473;-66
2023/06/08 10:10:51;;;;;;;16.00;8.57;;;;;;;20.64;100.00;165968.97;5034439;28;20038;-67
2023/06/08 10:13:17;;;;;;;21.17;9.63;;;;;;;21.00;100.00;166062.72;5032844;28;20032;-66
2023/06/08 10:15:43;;;;;;;20.60;10.57;;;;;;;21.11;100.00;166092.56;5034038;28;20036;-66
2023/06/08 10:18:08;;;;;;;15.98;9.00;;;;;;;21.65;100.00;166235.25;5034074;28;20021;-65
2023/06/08 10:20:35;;;;;;;17.05;8.75;;;;;;;22.13;100.00;166361.59;5032443;28;20045;-67
2023/06/08 10:23:02;;;;;;;14.70;8.40;;;;;;;22.39;100.00;166428.22;5033730;28;20030;-67
2023/06/08 10:25:30;;;;;;;16.40;7.80;;;;;;;22.11;100.00;166354.78;5033042;28;20037;-67
2023/06/08 10:28:03;;;;;;;15.90;8.40;;;;;;;21.65;100.00;166235.25;5033980;28;20026;-67
2023/06/08 10:30:33;;;;;;;12.18;8.25;;;;;;;21.19;100.00;166114.28;5032882;28;20492;-67
2023/06/08 10:33:22;;;;;;;19.33;11.00;;;;;;;21.23;100.00;166125.19;5034014;28;20036;-67
2023/06/08 10:36:06;;;;;;;8.52;6.75;;;;;;;21.64;100.00;166232.53;5011722;28;20111;-67
2023/06/08 10:38:37;;;;;;;18.50;8.63;;;;;;;21.43;100.00;166176.78;5013034;28;20037;-67
2023/06/08 10:41:03;;;;;;;19.48;7.70;;;;;;;21.73;100.00;166254.25;5014505;28;20477;-67
2023/06/08 10:43:29;;;;;;;18.63;10.32;;;;;;;21.29;100.00;166138.75;5008856;28;20052;-67
2023/06/08 10:45:55;;;;;;;30.08;8.48;;;;;;;21.37;100.00;166160.47;5013973;28;20431;-67
2023/06/08 10:48:22;;;;;;;14.18;7.75;;;;;;;21.33;100.00;166149.63;5012477;28;20275;-66
2023/06/08 10:50:49;;;;;;;14.10;7.53;;;;;;;21.86;100.00;166290.91;5013582;28;20105;-67
2023/06/08 10:53:20;;;;;;;16.58;8.20;;;;;;;22.34;100.00;166415.91;5012999;28;20079;-66
2023/06/08 10:55:49;;;;;;;12.75;7.80;;;;;;;22.33;100.00;166413.19;5013961;28;20060;-66
2023/06/08 10:58:19;;;;;;;16.40;8.18;;;;;;;22.85;100.00;166550.53;5012050;28;20435;-68
2023/06/08 11:00:49;;;;;;;15.32;7.25;;;;;;;23.10;100.00;166615.72;5013566;28;20572;-66
2023/06/08 11:03:19;;;;;;;12.98;8.65;;;;;;;22.97;100.00;166581.78;5013059;28;20057;-66
2023/06/08 11:05:48;;;;;;;13.82;8.40;;;;;;;22.96;100.00;166579.06;5032942;28;20105;-66